Time;durP1;ratioP1;P1;durP2;ratioP2;P2;SDS_P1;SDS_P2;PMS_P1;PMS_P2;Temp;Humidity;BMP_temperature;BMP_pressure;BME280_temperature;BME280_humidity;BME280_pressure;Samples;Min_cycle;Max_cycle;Signal;HPM_P1;HPM_P2
2023/05/13 00:01:52;;;;;;;15.33;9.57;;;11.70;99.90;;;;;;5009531;28;20204;-79
2023/05/13 00:04:41;;;;;;;15.43;9.10;;;11.80;99.90;;;;;;5010615;28;20199;-79
2023/05/13 00:07:28;;;;;;;15.67;8.87;;;11.80;99.90;;;;;;5008462;28;20227;-79
2023/05/13 00:10:15;;;;;;;14.03;8.43;;;11.80;99.90;;;;;;5010183;28;20200;-78
2023/05/13 00:13:03;;;;;;;14.20;8.73;;;11.80;99.90;;;;;;5009588;28;20204;-77
2023/05/13 00:15:50;;;;;;;15.57;8.73;;;11.80;99.90;;;;;;5008317;28;20512;-78
2023/05/13 00:18:37;;;;;;;14.10;8.80;;;11.70;99.90;;;;;;5008454;28;20207;-77
2023/05/13 00:21:24;;;;;;;15.20;8.80;;;11.70;99.90;;;;;;5009649;28;20200;-78
2023/05/13 00:24:14;;;;;;;13.07;8.57;;;11.70;99.90;;;;;;5008963;28;20218;-77
2023/05/13 00:27:01;;;;;;;14.63;8.60;;;11.70;99.90;;;;;;5009053;28;20196;-78
2023/05/13 00:29:48;;;;;;;16.73;8.97;;;11.70;99.90;;;;;;5009260;28;20202;-78
2023/05/13 00:32:36;;;;;;;12.93;8.83;;;11.70;99.90;;;;;;5008836;28;20196;-77
2023/05/13 00:35:23;;;;;;;15.43;8.97;;;11.70;99.90;;;;;;5012897;28;20195;-79
2023/05/13 00:38:10;;;;;;;17.83;8.80;;;11.70;99.90;;;;;;5013845;28;20204;-78
2023/05/13 00:40:57;;;;;;;12.90;8.67;;;11.60;99.90;;;;;;5012267;28;20587;-77
2023/05/13 00:43:44;;;;;;;15.20;8.63;;;11.60;99.90;;;;;;5013345;28;20204;-78
2023/05/13 00:46:32;;;;;;;17.50;9.40;;;11.60;99.90;;;;;;5012917;28;20211;-77
2023/05/13 00:49:21;;;;;;;16.00;8.53;;;11.50;99.90;;;;;;5013669;28;20586;-78
2023/05/13 00:52:10;;;;;;;14.80;8.57;;;11.50;99.90;;;;;;5012467;28;20591;-78
2023/05/13 00:54:57;;;;;;;13.20;8.63;;;11.60;99.90;;;;;;5012491;28;20247;-78
2023/05/13 00:57:44;;;;;;;18.60;9.23;;;11.60;99.90;;;;;;5013007;28;20294;-78
2023/05/13 01:00:41;;;;;;;15.00;8.73;;;11.60;99.90;;;;;;5012503;28;20200;-78
2023/05/13 01:03:41;;;;;;;14.13;8.73;;;11.60;99.90;;;;;;5013447;28;20196;-78
2023/05/13 01:06:50;;;;;;;15.40;8.23;;;11.60;99.90;;;;;;5012484;28;20595;-78
2023/05/13 01:10:01;;;;;;;14.73;8.47;;;11.60;99.90;;;;;;5014341;28;20211;-78
2023/05/13 01:12:55;;;;;;;14.07;8.97;;;11.60;99.90;;;;;;5012188;28;20319;-78
2023/05/13 01:15:56;;;;;;;14.13;8.80;;;11.60;99.90;;;;;;5011520;28;20200;-78
2023/05/13 01:18:56;;;;;;;15.50;8.73;;;11.60;99.90;;;;;;5012046;28;20306;-77
2023/05/13 01:21:53;;;;;;;18.13;9.10;;;11.60;99.90;;;;;;5013246;28;20204;-78
2023/05/13 01:24:41;;;;;;;13.60;8.40;;;11.60;99.90;;;;;;5012038;28;20200;-79
2023/05/13 01:27:28;;;;;;;14.07;8.93;;;11.60;99.90;;;;;;5012771;28;20195;-79
2023/05/13 01:30:15;;;;;;;15.47;9.50;;;11.50;99.90;;;;;;5011356;28;20262;-79
2023/05/13 01:33:03;;;;;;;14.47;9.27;;;11.50;99.90;;;;;;5011952;28;20211;-78
2023/05/13 01:35:51;;;;;;;16.37;8.83;;;11.50;99.90;;;;;;5009822;28;20557;-79
2023/05/13 01:38:39;;;;;;;14.40;8.97;;;11.50;99.90;;;;;;5011531;28;20192;-78
2023/05/13 01:41:26;;;;;;;17.50;9.63;;;11.40;99.90;;;;;;5011781;28;20250;-79
2023/05/13 01:44:14;;;;;;;14.17;9.37;;;11.40;99.90;;;;;;5012929;28;20204;-79
2023/05/13 01:47:01;;;;;;;14.80;9.30;;;11.30;99.90;;;;;;5011481;28;20205;-79
2023/05/13 01:49:48;;;;;;;16.30;9.33;;;11.30;99.90;;;;;;5008932;28;20265;-77
2023/05/13 01:52:37;;;;;;;16.83;9.50;;;11.20;99.90;;;;;;4978400;28;20591;-76
2023/05/13 01:55:24;;;;;;;19.10;9.60;;;11.20;99.90;;;;;;4992336;28;20239;-77
2023/05/13 01:58:11;;;;;;;17.47;9.70;;;11.10;99.90;;;;;;4992505;28;20201;-78
2023/05/13 02:00:59;;;;;;;18.87;9.63;;;11.10;99.90;;;;;;4992277;28;20197;-77
2023/05/13 02:03:46;;;;;;;15.17;9.20;;;11.00;99.90;;;;;;4990706;28;20197;-77
2023/05/13 02:06:33;;;;;;;16.03;9.57;;;11.00;99.90;;;;;;4992528;28;20585;-77
2023/05/13 02:09:20;;;;;;;13.93;9.17;;;10.90;99.90;;;;;;4992260;28;20211;-77
2023/05/13 02:12:08;;;;;;;16.87;9.47;;;11.00;99.90;;;;;;4992030;28;20224;-77
2023/05/13 02:14:55;;;;;;;16.20;9.60;;;11.00;99.90;;;;;;4992351;28;20206;-79
2023/05/13 02:17:42;;;;;;;17.57;9.60;;;11.00;99.90;;;;;;5008666;28;20208;-80
2023/05/13 02:20:29;;;;;;;16.37;9.77;;;11.00;99.90;;;;;;5011294;28;20208;-78
2023/05/13 02:23:16;;;;;;;17.13;9.50;;;11.00;99.90;;;;;;5011026;28;20650;-78
2023/05/13 02:26:04;;;;;;;17.87;9.90;;;11.00;99.90;;;;;;5010978;28;20212;-78
2023/05/13 02:28:51;;;;;;;14.80;9.30;;;11.10;99.90;;;;;;5011499;28;20200;-78
2023/05/13 02:31:40;;;;;;;17.10;10.40;;;11.10;99.90;;;;;;5011201;28;20224;-78
2023/05/13 02:34:27;;;;;;;16.27;9.73;;;11.10;99.90;;;;;;5010031;28;20196;-77
2023/05/13 02:37:16;;;;;;;16.93;9.67;;;11.10;99.90;;;;;;5010905;28;20196;-78
2023/05/13 02:40:05;;;;;;;14.70;9.60;;;11.10;99.90;;;;;;5010487;28;20200;-79
2023/05/13 02:42:52;;;;;;;14.90;9.50;;;11.10;99.90;;;;;;5010768;28;20684;-79
2023/05/13 02:45:40;;;;;;;14.97;9.20;;;11.00;99.90;;;;;;5010562;28;20200;-78
2023/05/13 02:48:31;;;;;;;18.67;10.33;;;11.00;99.90;;;;;;5011095;28;20275;-78
2023/05/13 02:51:19;;;;;;;16.87;9.80;;;11.00;99.90;;;;;;5010075;28;20228;-78
2023/05/13 02:54:07;;;;;;;18.10;10.03;;;11.10;99.90;;;;;;5010427;28;20219;-79
2023/05/13 02:56:54;;;;;;;17.13;10.23;;;11.10;99.90;;;;;;5009052;28;20207;-78
2023/05/13 02:59:41;;;;;;;15.20;9.67;;;11.10;99.90;;;;;;5008607;28;20199;-79
2023/05/13 03:02:28;;;;;;;16.00;9.80;;;11.10;99.90;;;;;;5010507;28;20624;-77
2023/05/13 03:05:16;;;;;;;19.00;10.30;;;11.20;99.90;;;;;;5011865;28;20654;-77
2023/05/13 03:08:03;;;;;;;15.83;10.10;;;11.20;99.90;;;;;;5009792;28;20243;-77
2023/05/13 03:10:51;;;;;;;17.70;10.10;;;11.20;99.90;;;;;;5009598;28;20200;-77
2023/05/13 03:13:39;;;;;;;17.47;10.30;;;11.20;99.90;;;;;;5008671;28;20211;-77
2023/05/13 03:16:26;;;;;;;15.43;9.80;;;11.20;99.90;;;;;;5009628;28;20192;-78
2023/05/13 03:19:13;;;;;;;15.30;9.93;;;11.20;99.90;;;;;;5009910;28;20200;-77
2023/05/13 03:22:01;;;;;;;16.17;10.20;;;11.20;99.90;;;;;;4995300;28;20192;-78
2023/05/13 03:24:48;;;;;;;16.80;10.10;;;11.30;99.90;;;;;;4995087;28;20204;-77
2023/05/13 03:27:35;;;;;;;17.83;10.70;;;11.20;99.90;;;;;;5009369;28;20192;-77
2023/05/13 03:30:22;;;;;;;17.80;10.27;;;11.20;99.90;;;;;;5008525;28;20500;-76
2023/05/13 03:33:10;;;;;;;19.27;10.60;;;11.20;99.90;;;;;;5009143;28;20771;-77
2023/05/13 03:35:57;;;;;;;18.20;9.83;;;11.20;99.90;;;;;;5008061;28;20196;-77
2023/05/13 03:38:44;;;;;;;15.87;10.33;;;11.20;99.90;;;;;;5008980;28;20226;-77
2023/05/13 03:41:31;;;;;;;15.90;9.97;;;11.10;99.90;;;;;;5009349;28;20219;-77
2023/05/13 03:44:19;;;;;;;15.73;10.30;;;11.10;99.90;;;;;;5009995;28;20215;-77
2023/05/13 03:47:06;;;;;;;19.67;11.33;;;11.00;99.90;;;;;;5008418;28;20653;-77
2023/05/13 03:49:53;;;;;;;18.10;10.40;;;11.00;99.90;;;;;;5009573;28;20200;-78
2023/05/13 03:52:40;;;;;;;18.47;11.10;;;10.90;99.90;;;;;;5008316;28;20234;-79
2023/05/13 03:55:29;;;;;;;18.93;11.40;;;10.90;99.90;;;;;;5010478;28;20657;-77
2023/05/13 03:58:17;;;;;;;19.93;11.23;;;10.80;99.90;;;;;;5009598;28;20638;-79
2023/05/13 04:01:05;;;;;;;21.47;11.57;;;10.80;99.90;;;;;;5007566;28;20611;-79
2023/05/13 04:03:52;;;;;;;18.37;11.80;;;10.80;99.90;;;;;;5010158;28;20688;-77
2023/05/13 04:06:41;;;;;;;18.57;11.87;;;10.80;99.90;;;;;;5008331;28;20224;-78
2023/05/13 04:09:28;;;;;;;18.93;12.10;;;11.00;99.90;;;;;;5010814;28;20196;-79
2023/05/13 04:12:16;;;;;;;19.10;12.27;;;11.00;99.90;;;;;;5011572;28;20585;-79
2023/05/13 04:15:04;;;;;;;18.93;11.60;;;11.10;99.90;;;;;;5011902;28;20588;-79
2023/05/13 04:17:52;;;;;;;17.77;12.03;;;11.20;99.90;;;;;;5012225;28;20226;-79
2023/05/13 04:20:39;;;;;;;19.13;12.23;;;11.40;99.90;;;;;;5013407;28;20219;-79
2023/05/13 04:23:27;;;;;;;19.67;12.63;;;11.60;99.90;;;;;;5011758;28;20563;-79
2023/05/13 04:26:14;;;;;;;20.27;12.60;;;11.70;99.90;;;;;;5012800;28;20203;-79
2023/05/13 04:29:01;;;;;;;20.93;12.40;;;11.90;99.90;;;;;;5012293;28;20211;-79
2023/05/13 04:31:48;;;;;;;20.07;12.17;;;12.10;99.90;;;;;;5012040;28;20208;-79
2023/05/13 04:34:35;;;;;;;20.57;11.90;;;12.10;99.90;;;;;;5012449;28;20574;-78
2023/05/13 04:37:22;;;;;;;16.40;11.03;;;12.20;99.90;;;;;;5013152;28;20699;-79
2023/05/13 04:40:10;;;;;;;17.63;10.70;;;12.20;99.90;;;;;;5011744;28;20599;-78
2023/05/13 04:42:57;;;;;;;19.80;11.60;;;12.30;99.90;;;;;;5011882;28;20211;-77
2023/05/13 04:45:46;;;;;;;19.37;11.73;;;12.40;99.90;;;;;;4999465;28;20211;-79
2023/05/13 04:48:33;;;;;;;17.10;11.60;;;12.40;99.90;;;;;;5012671;28;20210;-78
2023/05/13 04:51:21;;;;;;;17.40;11.10;;;12.40;99.90;;;;;;5012535;28;20271;-78
2023/05/13 04:54:09;;;;;;;15.90;10.60;;;12.40;99.90;;;;;;5011228;28;20223;-78
2023/05/13 04:56:56;;;;;;;18.63;12.23;;;12.40;99.90;;;;;;5013078;28;20193;-77
2023/05/13 04:59:43;;;;;;;18.20;11.93;;;12.40;99.90;;;;;;5011329;28;20216;-78
2023/05/13 05:02:30;;;;;;;19.73;11.67;;;12.40;99.90;;;;;;5010954;28;20196;-79
2023/05/13 05:05:18;;;;;;;18.47;11.30;;;12.30;99.90;;;;;;5012381;28;20204;-79
2023/05/13 05:08:05;;;;;;;19.50;12.17;;;12.50;99.90;;;;;;5011014;28;20647;-79
2023/05/13 05:10:54;;;;;;;18.63;11.70;;;12.70;99.90;;;;;;5011208;28;20206;-79
2023/05/13 05:13:42;;;;;;;18.33;11.47;;;12.90;99.90;;;;;;5012390;28;20196;-78
2023/05/13 05:16:29;;;;;;;18.13;11.00;;;13.00;99.90;;;;;;5010614;28;20211;-76
2023/05/13 05:19:16;;;;;;;17.27;10.87;;;13.20;99.90;;;;;;5010734;28;20192;-77
2023/05/13 05:22:04;;;;;;;16.10;10.27;;;13.30;99.90;;;;;;5011841;28;20283;-77
2023/05/13 05:24:51;;;;;;;17.97;10.53;;;13.30;99.90;;;;;;5011593;28;20228;-77
2023/05/13 05:27:38;;;;;;;16.47;10.47;;;13.30;99.90;;;;;;5010449;28;20650;-77
2023/05/13 05:30:26;;;;;;;19.20;10.43;;;13.20;99.90;;;;;;5011052;28;20657;-78
2023/05/13 05:33:13;;;;;;;16.30;10.40;;;13.30;99.90;;;;;;5011709;28;20223;-78
2023/05/13 05:36:01;;;;;;;16.53;10.00;;;13.30;99.90;;;;;;5010336;28;20208;-78
2023/05/13 05:38:49;;;;;;;13.77;9.80;;;13.40;99.90;;;;;;5011044;28;20219;-79
2023/05/13 05:41:36;;;;;;;16.93;10.37;;;13.60;99.90;;;;;;5011211;28;20196;-79
2023/05/13 05:44:23;;;;;;;17.30;9.37;;;13.60;99.90;;;;;;5011701;28;20283;-81
2023/05/13 05:47:10;;;;;;;16.20;9.23;;;13.70;99.90;;;;;;5011577;28;20196;-81
2023/05/13 05:49:58;;;;;;;15.10;9.00;;;13.80;99.90;;;;;;5011490;28;20211;-82
2023/05/13 05:52:45;;;;;;;13.00;9.27;;;14.00;99.90;;;;;;5013991;28;20226;-82
2023/05/13 05:55:33;;;;;;;14.43;9.20;;;14.20;99.90;;;;;;5011210;28;20207;-81
2023/05/13 05:58:20;;;;;;;16.13;8.90;;;14.50;99.90;;;;;;5011690;28;20541;-81
2023/05/13 06:01:07;;;;;;;13.73;8.30;;;14.60;99.90;;;;;;5011947;28;20203;-81
2023/05/13 06:03:54;;;;;;;12.87;8.27;;;14.70;99.90;;;;;;5011976;28;20234;-81
2023/05/13 06:06:42;;;;;;;13.27;7.80;;;14.80;99.90;;;;;;5011073;28;20362;-81
2023/05/13 06:09:30;;;;;;;12.20;8.47;;;14.80;99.90;;;;;;5011950;28;20614;-80
2023/05/13 06:12:17;;;;;;;14.47;8.23;;;14.90;99.90;;;;;;5012360;28;20574;-82
2023/05/13 06:15:09;;;;;;;12.97;8.27;;;15.00;99.90;;;;;;5012109;28;20585;-81
2023/05/13 06:17:56;;;;;;;14.80;8.17;;;15.10;99.90;;;;;;5011183;28;20218;-82
2023/05/13 06:20:44;;;;;;;14.07;7.43;;;15.20;99.90;;;;;;5009581;28;20613;-81
2023/05/13 06:23:31;;;;;;;11.07;7.13;;;15.20;99.90;;;;;;4996743;28;20646;-82
2023/05/13 06:26:20;;;;;;;12.67;7.53;;;15.20;99.90;;;;;;5010830;28;20639;-81
2023/05/13 06:29:08;;;;;;;12.47;7.00;;;15.40;99.90;;;;;;5011346;28;20527;-80
2023/05/13 06:31:55;;;;;;;11.17;6.77;;;15.50;99.90;;;;;;5010108;28;20669;-83
2023/05/13 06:34:44;;;;;;;11.87;6.77;;;15.70;99.90;;;;;;5010758;28;20208;-82
2023/05/13 06:37:31;;;;;;;9.77;6.00;;;15.70;99.90;;;;;;5010641;28;20642;-82
2023/05/13 06:40:19;;;;;;;10.23;6.17;;;15.90;99.90;;;;;;5010142;28;20215;-80
2023/05/13 06:43:06;;;;;;;9.83;6.43;;;16.00;99.90;;;;;;5010485;28;20670;-79
2023/05/13 06:45:53;;;;;;;13.60;6.70;;;16.10;99.90;;;;;;5010867;28;20653;-78
2023/05/13 06:48:41;;;;;;;12.87;6.47;;;16.30;99.90;;;;;;5009311;28;20851;-79
2023/05/13 06:51:29;;;;;;;12.17;6.13;;;16.40;99.90;;;;;;5010373;28;20204;-79
2023/05/13 06:54:16;;;;;;;11.87;6.23;;;16.50;99.90;;;;;;5011121;28;20204;-79
2023/05/13 06:57:04;;;;;;;10.13;5.93;;;16.70;99.90;;;;;;5010663;28;20558;-80
2023/05/13 06:59:51;;;;;;;13.20;6.17;;;16.80;99.90;;;;;;5009403;28;20561;-80
2023/05/13 07:02:39;;;;;;;8.23;5.40;;;17.00;99.90;;;;;;5010045;28;20771;-81
2023/05/13 07:05:26;;;;;;;8.37;5.17;;;17.10;99.90;;;;;;5010649;28;20294;-81
2023/05/13 07:08:16;;;;;;;7.90;5.23;;;17.20;99.90;;;;;;5010590;28;20247;-83
2023/05/13 07:11:04;;;;;;;11.03;5.40;;;17.40;99.90;;;;;;5009408;28;20219;-82
2023/05/13 07:13:51;;;;;;;9.07;4.97;;;17.60;99.90;;;;;;5010135;28;20748;-80
2023/05/13 07:16:38;;;;;;;7.90;4.33;;;17.70;99.90;;;;;;5009798;28;20642;-80
2023/05/13 07:19:25;;;;;;;6.87;4.20;;;17.70;94.90;;;;;;5009414;28;20199;-79
2023/05/13 07:22:13;;;;;;;7.63;4.07;;;17.80;96.50;;;;;;5009000;28;20453;-80
2023/05/13 07:25:00;;;;;;;7.80;4.50;;;18.00;96.70;;;;;;5011744;28;20188;-79
2023/05/13 07:27:48;;;;;;;6.50;3.80;;;18.20;96.80;;;;;;5010342;28;20215;-80
2023/05/13 07:30:35;;;;;;;4.93;3.70;;;18.30;91.90;;;;;;5008807;28;20216;-79
2023/05/13 07:33:22;;;;;;;6.17;3.90;;;18.30;91.50;;;;;;5009585;28;20737;-78
2023/05/13 07:36:09;;;;;;;7.20;3.90;;;18.40;92.60;;;;;;5009667;28;20661;-79
2023/05/13 07:38:56;;;;;;;7.83;4.27;;;18.60;92.80;;;;;;5010843;28;20200;-79
2023/05/13 07:41:44;;;;;;;7.13;4.10;;;18.70;91.40;;;;;;5009526;28;20222;-77
2023/05/13 07:44:31;;;;;;;6.73;4.10;;;18.80;90.00;;;;;;5009980;28;20682;-79
2023/05/13 07:47:18;;;;;;;6.67;4.20;;;18.80;88.60;;;;;;5010106;28;20200;-79
2023/05/13 07:50:06;;;;;;;7.17;4.37;;;18.80;88.40;;;;;;5010209;28;20211;-79
2023/05/13 07:52:53;;;;;;;7.33;3.80;;;18.90;89.70;;;;;;5009437;28;20232;-78
2023/05/13 07:55:41;;;;;;;5.63;3.87;;;19.00;85.10;;;;;;5010010;28;20196;-78
2023/05/13 07:58:28;;;;;;;6.77;3.50;;;19.10;84.60;;;;;;5008992;28;20544;-79
2023/05/13 08:01:16;;;;;;;4.73;3.60;;;19.20;81.90;;;;;;5009656;28;20195;-79
2023/05/13 08:04:04;;;;;;;5.23;3.30;;;19.30;83.40;;;;;;5009062;28;20695;-78
2023/05/13 08:06:51;;;;;;;6.40;3.80;;;19.40;82.70;;;;;;5009000;28;20230;-78
2023/05/13 08:09:39;;;;;;;7.50;3.70;;;19.50;81.60;;;;;;5009575;28;20223;-79
2023/05/13 08:12:26;;;;;;;6.23;3.67;;;19.80;82.30;;;;;;5010149;28;20207;-79
2023/05/13 08:15:18;;;;;;;5.97;3.77;;;21.00;79.20;;;;;;5009265;28;20224;-78
2023/05/13 08:18:05;;;;;;;6.68;3.55;;;22.20;72.70;;;;;;5009153;28;20658;-79
2023/05/13 08:20:53;;;;;;;4.97;3.50;;;23.30;69.20;;;;;;5004650;28;20196;-81
2023/05/13 08:23:41;;;;;;;5.95;3.22;;;23.90;64.00;;;;;;5005305;28;20283;-82
2023/05/13 08:26:32;;;;;;;5.07;3.45;;;24.70;59.70;;;;;;4990464;28;20197;-80
2023/05/13 08:29:19;;;;;;;5.70;3.25;;;25.10;56.10;;;;;;4997875;28;20756;-83
2023/05/13 08:32:06;;;;;;;3.50;2.95;;;25.70;54.30;;;;;;5009550;28;20967;-79
2023/05/13 08:34:54;;;;;;;4.18;2.90;;;26.20;53.60;;;;;;5009708;28;20218;-77
2023/05/13 08:37:41;;;;;;;5.28;3.20;;;26.60;50.60;;;;;;5001447;28;20197;-82
2023/05/13 08:40:30;;;;;;;5.60;3.38;;;26.80;51.00;;;;;;4991086;28;20217;-78
2023/05/13 08:43:18;;;;;;;6.80;3.60;;;26.80;51.20;;;;;;4976385;28;20212;-82
2023/05/13 08:46:09;;;;;;;5.60;3.42;;;26.90;50.60;;;;;;4990991;28;20324;-79
2023/05/13 08:48:57;;;;;;;5.45;3.15;;;27.20;51.50;;;;;;4989692;28;20228;-82
2023/05/13 08:51:45;;;;;;;6.75;3.70;;;27.50;50.80;;;;;;4948276;28;20292;-82
2023/05/13 08:54:33;;;;;;;3.65;2.63;;;27.60;50.30;;;;;;4949709;28;20693;-79
2023/05/13 08:57:20;;;;;;;4.93;3.03;;;27.60;46.60;;;;;;4951297;28;20514;-80
2023/05/13 09:00:08;;;;;;;3.67;2.40;;;27.10;46.50;;;;;;4951954;28;20210;-83
2023/05/13 09:02:55;;;;;;;3.90;2.30;;;26.90;46.40;;;;;;4951935;28;20199;-85
2023/05/13 09:05:44;;;;;;;6.32;2.70;;;26.80;46.00;;;;;;4939534;28;20205;-81
2023/05/13 09:08:31;;;;;;;2.65;2.20;;;27.00;46.30;;;;;;4955028;28;20194;-85
2023/05/13 09:11:18;;;;;;;3.30;2.42;;;27.10;45.40;;;;;;4994686;28;20223;-79
2023/05/13 09:14:10;;;;;;;6.32;2.78;;;27.10;45.10;;;;;;4995547;28;20228;-84
2023/05/13 09:17:00;;;;;;;4.00;2.25;;;27.00;45.10;;;;;;4995973;28;20205;-85
2023/05/13 09:19:47;;;;;;;2.63;2.00;;;26.90;44.20;;;;;;4995964;28;20223;-87
2023/05/13 09:22:35;;;;;;;3.67;2.65;;;26.80;42.80;;;;;;4994532;28;20244;-85
2023/05/13 09:25:23;;;;;;;4.15;2.20;;;26.80;43.50;;;;;;4994440;28;20220;-86
2023/05/13 09:28:14;;;;;;;4.35;2.60;;;27.20;44.80;;;;;;4994233;28;20311;-86
2023/05/13 09:31:01;;;;;;;5.97;2.53;;;27.30;43.50;;;;;;4994363;28;20219;-86
2023/05/13 09:33:52;;;;;;;2.65;2.10;;;27.20;43.70;;;;;;4979495;28;20699;-85
2023/05/13 09:36:40;;;;;;;2.97;2.35;;;27.20;42.50;;;;;;5002372;28;20651;-82
2023/05/13 09:39:28;;;;;;;5.38;2.40;;;27.10;42.80;;;;;;5000974;28;20201;-85
2023/05/13 09:42:20;;;;;;;3.30;2.30;;;27.10;43.00;;;;;;4996216;28;20196;-85
2023/05/13 09:45:09;;;;;;;4.22;2.40;;;27.30;43.30;;;;;;5011716;28;20227;-78
2023/05/13 09:47:56;;;;;;;3.72;2.58;;;27.70;43.00;;;;;;4993803;28;20717;-86
2023/05/13 09:50:48;;;;;;;3.53;2.40;;;27.50;42.40;;;;;;4993336;28;20231;-85
2023/05/13 09:53:35;;;;;;;4.72;2.70;;;26.80;43.00;;;;;;4995321;28;20359;-80
2023/05/13 09:56:23;;;;;;;5.03;2.70;;;26.10;43.90;;;;;;4996519;28;20522;-85
2023/05/13 09:59:10;;;;;;;4.68;2.67;;;25.60;44.50;;;;;;4993792;28;20208;-86
2023/05/13 10:02:02;;;;;;;3.97;2.90;;;25.90;45.60;;;;;;4993907;28;20199;-85
2023/05/13 10:04:51;;;;;;;7.25;3.20;;;26.30;45.30;;;;;;4978347;28;20197;-85
2023/05/13 10:07:38;;;;;;;6.60;3.10;;;26.00;46.30;;;;;;4993554;28;20232;-85
2023/05/13 10:10:26;;;;;;;7.95;3.55;;;25.70;46.10;;;;;;4980507;28;20584;-85
2023/05/13 10:13:16;;;;;;;9.30;2.90;;;25.50;47.30;;;;;;4993589;28;20229;-84
2023/05/13 10:16:04;;;;;;;4.13;2.85;;;25.40;47.60;;;;;;4993177;28;20208;-87
2023/05/13 10:18:51;;;;;;;4.20;3.00;;;25.20;47.80;;;;;;4993325;28;20659;-86
2023/05/13 10:21:40;;;;;;;5.57;3.15;;;25.00;47.50;;;;;;4993224;28;20197;-83
2023/05/13 10:24:28;;;;;;;3.88;3.13;;;25.00;49.30;;;;;;4993590;28;20197;-82
2023/05/13 10:27:16;;;;;;;6.25;3.38;;;24.60;50.50;;;;;;4992333;28;20204;-82
2023/05/13 10:30:08;;;;;;;7.38;3.80;;;24.50;50.70;;;;;;4991526;28;20205;-84
2023/05/13 10:32:56;;;;;;;6.72;3.30;;;25.20;50.10;;;;;;4992289;28;20208;-84
2023/05/13 10:36:04;;;;;;;5.28;3.20;;;25.80;49.40;;;;;;4993026;28;20280;-83
2023/05/13 10:39:37;;;;;;;7.05;3.47;;;26.20;47.10;;;;;;4979414;28;20196;-83
2023/05/13 10:42:30;;;;;;;8.70;4.07;;;25.60;47.60;;;;;;4984585;28;20239;-83
2023/05/13 10:45:17;;;;;;;3.72;2.83;;;25.50;47.90;;;;;;4992027;28;20204;-85
2023/05/13 10:48:06;;;;;;;7.57;3.40;;;25.50;48.50;;;;;;4992068;28;20204;-82
2023/05/13 10:51:00;;;;;;;6.95;3.20;;;26.20;48.90;;;;;;4992652;28;20216;-84
2023/05/13 10:53:50;;;;;;;8.00;3.63;;;26.10;47.40;;;;;;4992299;28;20238;-85
2023/05/13 10:56:37;;;;;;;5.47;2.90;;;26.40;48.70;;;;;;4991521;28;20212;-84
2023/05/13 10:59:29;;;;;;;4.82;2.90;;;26.00;48.30;;;;;;4993721;28;20610;-81
2023/05/13 11:02:22;;;;;;;4.18;3.00;;;25.80;48.50;;;;;;4991834;28;20707;-83
2023/05/13 11:05:20;;;;;;;5.07;3.05;;;25.80;48.80;;;;;;4993542;28;20240;-85
2023/05/13 11:08:10;;;;;;;9.15;3.65;;;25.40;48.80;;;;;;4991085;28;20232;-79
2023/05/13 11:10:57;;;;;;;8.88;3.92;;;25.20;48.90;;;;;;4992263;28;20201;-83
2023/05/13 11:13:45;;;;;;;6.53;3.30;;;24.80;49.40;;;;;;4991460;28;20229;-81
2023/05/13 11:16:33;;;;;;;5.25;3.05;;;24.60;50.40;;;;;;4990604;28;20193;-83
2023/05/13 11:19:24;;;;;;;16.65;5.82;;;24.60;52.20;;;;;;4991797;28;20207;-87
2023/05/13 11:22:19;;;;;;;7.38;3.22;;;25.40;50.50;;;;;;4993154;28;20631;-78
2023/05/13 11:25:12;;;;;;;5.50;3.00;;;26.30;48.10;;;;;;4992938;28;20620;-77
2023/05/13 11:27:59;;;;;;;4.85;2.63;;;26.50;48.70;;;;;;4991892;28;20658;-82
2023/05/13 11:30:54;;;;;;;4.28;2.80;;;26.70;46.50;;;;;;4995314;28;20208;-78
2023/05/13 11:34:13;;;;;;;4.50;2.60;;;26.50;47.20;;;;;;4991340;28;20265;-77
2023/05/13 11:37:03;;;;;;;6.55;2.70;;;26.70;46.80;;;;;;4990864;28;20208;-79
2023/05/13 11:39:51;;;;;;;9.27;3.20;;;26.80;46.60;;;;;;4991200;28;20205;-79
2023/05/13 11:42:39;;;;;;;6.50;3.28;;;26.70;47.00;;;;;;4991377;28;20227;-83
2023/05/13 11:45:27;;;;;;;3.38;2.70;;;26.50;47.90;;;;;;4990872;28;20201;-77
2023/05/13 11:48:19;;;;;;;5.32;3.08;;;26.20;49.60;;;;;;4991731;28;20279;-79
2023/05/13 11:51:07;;;;;;;5.95;2.78;;;25.90;49.20;;;;;;4992236;28;20208;-84
2023/05/13 11:54:03;;;;;;;7.43;2.80;;;25.80;48.70;;;;;;4989970;28;20240;-78
2023/05/13 11:56:51;;;;;;;6.93;2.53;;;26.20;48.50;;;;;;4990014;28;20199;-83
2023/05/13 11:59:40;;;;;;;4.43;2.63;;;26.40;47.30;;;;;;4990799;28;20236;-82
2023/05/13 12:02:36;;;;;;;18.52;6.07;;;26.40;47.70;;;;;;4990418;28;20558;-83
2023/05/13 12:05:24;;;;;;;8.52;3.58;;;26.90;48.70;;;;;;4991557;28;20288;-82
2023/05/13 12:08:13;;;;;;;5.18;2.50;;;27.20;46.50;;;;;;4996504;28;20235;-88
2023/05/13 12:11:06;;;;;;;3.85;2.58;;;27.20;47.00;;;;;;5006990;28;20196;-78
2023/05/13 12:14:07;;;;;;;4.45;2.72;;;28.00;46.50;;;;;;5007310;28;20688;-81
2023/05/13 12:16:56;;;;;;;3.40;2.35;;;28.40;46.80;;;;;;4981786;28;20381;-79
2023/05/13 12:20:05;;;;;;;4.57;3.17;;;29.30;45.00;;;;;;4989624;28;20200;-75
2023/05/13 12:22:55;;;;;;;4.97;2.60;;;30.10;43.60;;;;;;4988871;28;20201;-79
2023/05/13 12:25:45;;;;;;;4.43;2.63;;;30.10;42.70;;;;;;5005653;28;20235;-78
2023/05/13 12:28:32;;;;;;;7.72;3.45;;;29.80;42.30;;;;;;4990449;28;20193;-77
2023/05/13 12:31:19;;;;;;;7.22;3.30;;;30.50;43.60;;;;;;4992427;28;20209;-80
2023/05/13 12:34:07;;;;;;;11.68;4.10;;;31.30;41.30;;;;;;4993480;28;20247;-82
2023/05/13 12:36:54;;;;;;;6.70;2.88;;;31.50;41.00;;;;;;4993122;28;20204;-82
2023/05/13 12:39:42;;;;;;;29.55;8.75;;;30.90;40.50;;;;;;4992367;28;20204;-73
2023/05/13 12:42:29;;;;;;;15.43;4.95;;;30.40;43.90;;;;;;5006756;28;20196;-82
2023/05/13 12:45:20;;;;;;;14.13;5.22;;;29.90;47.50;;;;;;4993785;28;20701;-85
2023/05/13 12:48:08;;;;;;;8.20;3.72;;;29.00;50.20;;;;;;4992868;28;20197;-86
2023/05/13 12:50:55;;;;;;;6.57;3.40;;;28.30;48.60;;;;;;4993621;28;20205;-83
2023/05/13 12:53:42;;;;;;;3.78;2.47;;;27.30;51.00;;;;;;4994541;28;20232;-81
2023/05/13 12:56:30;;;;;;;6.47;3.05;;;26.90;53.50;;;;;;4994829;28;20682;-82
2023/05/13 12:59:18;;;;;;;3.75;2.50;;;27.30;54.40;;;;;;4993497;28;20204;-82
2023/05/13 13:02:05;;;;;;;4.88;2.40;;;27.70;50.20;;;;;;4993697;28;20205;-80
2023/05/13 13:04:53;;;;;;;4.68;2.70;;;28.20;51.40;;;;;;4993966;28;20216;-81
2023/05/13 13:07:41;;;;;;;3.70;2.30;;;28.60;48.60;;;;;;4992064;28;20436;-76
2023/05/13 13:10:28;;;;;;;3.97;2.63;;;28.60;48.50;;;;;;4992518;28;20429;-79
2023/05/13 13:13:15;;;;;;;3.53;2.50;;;28.50;51.10;;;;;;4992697;28;20204;-82
2023/05/13 13:16:03;;;;;;;4.38;2.20;;;28.60;48.10;;;;;;5002490;28;20216;-77
2023/05/13 13:18:51;;;;;;;3.10;2.30;;;28.70;46.20;;;;;;4997722;28;20197;-77
2023/05/13 13:21:41;;;;;;;6.70;2.40;;;28.60;46.10;;;;;;4991847;28;20249;-78
2023/05/13 13:24:28;;;;;;;4.90;2.13;;;29.10;47.10;;;;;;4993250;28;20203;-78
2023/05/13 13:27:16;;;;;;;3.47;2.15;;;29.60;44.60;;;;;;4993291;28;20222;-79
2023/05/13 13:30:03;;;;;;;6.00;2.38;;;29.60;44.50;;;;;;4993094;28;20208;-79
2023/05/13 13:32:50;;;;;;;2.45;2.20;;;29.70;42.80;;;;;;4991806;28;20205;-77
2023/05/13 13:35:38;;;;;;;6.03;2.38;;;29.80;42.90;;;;;;4992758;28;20255;-77
2023/05/13 13:38:25;;;;;;;2.95;2.22;;;29.70;42.50;;;;;;4992801;28;20204;-75
2023/05/13 13:41:12;;;;;;;3.42;2.20;;;29.70;43.50;;;;;;4992719;28;20278;-76
2023/05/13 13:43:59;;;;;;;4.78;2.70;;;29.20;42.50;;;;;;4992966;28;20223;-78
2023/05/13 13:46:47;;;;;;;3.47;2.40;;;28.60;44.30;;;;;;4992796;28;20585;-76
2023/05/13 13:49:34;;;;;;;2.88;2.20;;;28.40;45.70;;;;;;4993223;28;20213;-77
2023/05/13 13:52:25;;;;;;;4.20;2.47;;;28.40;44.40;;;;;;4993354;28;20201;-79
2023/05/13 13:55:18;;;;;;;4.38;2.67;;;27.80;44.90;;;;;;4994640;28;20315;-76
2023/05/13 13:58:05;;;;;;;4.97;2.53;;;27.70;46.00;;;;;;4982005;28;20208;-77
2023/05/13 14:00:53;;;;;;;3.25;2.10;;;28.20;45.50;;;;;;4992795;28;20205;-79
2023/05/13 14:03:40;;;;;;;2.90;2.20;;;28.40;44.10;;;;;;4995842;28;20209;-83
2023/05/13 14:06:27;;;;;;;2.88;2.00;;;29.00;44.00;;;;;;4992040;28;20227;-77
2023/05/13 14:09:15;;;;;;;2.40;2.13;;;29.30;41.50;;;;;;4978355;28;20212;-78
2023/05/13 14:12:02;;;;;;;3.00;2.33;;;29.50;42.30;;;;;;4994379;28;20211;-76
2023/05/13 14:14:49;;;;;;;4.55;2.30;;;29.40;40.80;;;;;;4991883;28;20216;-79
2023/05/13 14:17:36;;;;;;;4.68;2.17;;;29.70;42.30;;;;;;5008523;28;20192;-76
2023/05/13 14:20:24;;;;;;;3.05;2.08;;;30.40;41.50;;;;;;4993037;28;20209;-77
2023/05/13 14:23:11;;;;;;;3.10;2.40;;;30.30;40.50;;;;;;4978439;28;20201;-76
2023/05/13 14:25:58;;;;;;;3.63;2.22;;;30.60;40.80;;;;;;4992380;28;20251;-75
2023/05/13 14:28:46;;;;;;;3.15;2.10;;;30.30;39.10;;;;;;4992215;28;20686;-82
2023/05/13 14:31:33;;;;;;;4.93;2.30;;;30.40;39.40;;;;;;4991810;28;20870;-75